sensor_id;sensor_type;location;lat;lon;timestamp;P1;durP1;ratioP1;P2;durP2;ratioP2
49366;SDS011;35245;52.026;8.540;2024-02-28T00:00:34;40.53;;;25.55;;
49366;SDS011;35245;52.026;8.540;2024-02-28T00:03:02;42.83;;;26.52;;
49366;SDS011;35245;52.026;8.540;2024-02-28T00:05:31;43.33;;;25.90;;
49366;SDS011;35245;52.026;8.540;2024-02-28T00:07:58;45.70;;;29.25;;
49366;SDS011;35245;52.026;8.540;2024-02-28T00:10:25;43.10;;;27.10;;
49366;SDS011;35245;52.026;8.540;2024-02-28T00:12:52;45.55;;;27.42;;
49366;SDS011;35245;52.026;8.540;2024-02-28T00:15:21;41.10;;;25.73;;
49366;SDS011;35245;52.026;8.540;2024-02-28T00:17:51;45.25;;;28.65;;
49366;SDS011;35245;52.026;8.540;2024-02-28T00:20:18;40.50;;;27.00;;
49366;SDS011;35245;52.026;8.540;2024-02-28T00:22:46;40.83;;;26.20;;
49366;SDS011;35245;52.026;8.540;2024-02-28T00:25:13;41.22;;;25.67;;
49366;SDS011;35245;52.026;8.540;2024-02-28T00:27:41;43.15;;;26.85;;
49366;SDS011;35245;52.026;8.540;2024-02-28T00:30:08;46.70;;;28.00;;
49366;SDS011;35245;52.026;8.540;2024-02-28T00:32:37;48.65;;;29.42;;
49366;SDS011;35245;52.026;8.540;2024-02-28T00:35:04;41.60;;;26.13;;
49366;SDS011;35245;52.026;8.540;2024-02-28T00:37:32;44.85;;;27.48;;
49366;SDS011;35245;52.026;8.540;2024-02-28T00:39:59;45.92;;;28.15;;
49366;SDS011;35245;52.026;8.540;2024-02-28T00:42:26;44.35;;;27.60;;
49366;SDS011;35245;52.026;8.540;2024-02-28T00:44:53;46.35;;;29.70;;
49366;SDS011;35245;52.026;8.540;2024-02-28T00:47:20;45.90;;;30.02;;
49366;SDS011;35245;52.026;8.540;2024-02-28T00:49:49;46.45;;;30.65;;
49366;SDS011;35245;52.026;8.540;2024-02-28T00:52:17;43.97;;;27.00;;
49366;SDS011;35245;52.026;8.540;2024-02-28T00:54:44;49.33;;;30.40;;
49366;SDS011;35245;52.026;8.540;2024-02-28T00:57:11;45.83;;;29.35;;
49366;SDS011;35245;52.026;8.540;2024-02-28T00:59:38;47.97;;;29.92;;
49366;SDS011;35245;52.026;8.540;2024-02-28T01:02:05;47.05;;;29.98;;
49366;SDS011;35245;52.026;8.540;2024-02-28T01:04:32;47.25;;;29.50;;
49366;SDS011;35245;52.026;8.540;2024-02-28T01:07:01;36.75;;;23.02;;
49366;SDS011;35245;52.026;8.540;2024-02-28T01:09:28;36.97;;;23.02;;
49366;SDS011;35245;52.026;8.540;2024-02-28T01:11:55;40.35;;;24.50;;
49366;SDS011;35245;52.026;8.540;2024-02-28T01:14:23;39.40;;;25.00;;
49366;SDS011;35245;52.026;8.540;2024-02-28T01:16:50;34.17;;;21.50;;
49366;SDS011;35245;52.026;8.540;2024-02-28T01:19:17;33.55;;;21.45;;
49366;SDS011;35245;52.026;8.540;2024-02-28T01:21:44;35.40;;;21.48;;
49366;SDS011;35245;52.026;8.540;2024-02-28T01:24:13;36.03;;;22.35;;
49366;SDS011;35245;52.026;8.540;2024-02-28T01:26:40;34.63;;;21.45;;
49366;SDS011;35245;52.026;8.540;2024-02-28T01:29:07;35.58;;;22.52;;
49366;SDS011;35245;52.026;8.540;2024-02-28T01:31:35;34.83;;;22.65;;
49366;SDS011;35245;52.026;8.540;2024-02-28T01:34:02;38.90;;;24.77;;
49366;SDS011;35245;52.026;8.540;2024-02-28T01:36:29;41.55;;;26.58;;
49366;SDS011;35245;52.026;8.540;2024-02-28T01:38:56;42.10;;;26.55;;
49366;SDS011;35245;52.026;8.540;2024-02-28T01:41:25;40.20;;;26.98;;
49366;SDS011;35245;52.026;8.540;2024-02-28T01:43:52;40.88;;;26.17;;
49366;SDS011;35245;52.026;8.540;2024-02-28T01:46:20;43.10;;;28.23;;
49366;SDS011;35245;52.026;8.540;2024-02-28T01:48:50;46.33;;;29.02;;
49366;SDS011;35245;52.026;8.540;2024-02-28T01:51:18;43.40;;;26.38;;
49366;SDS011;35245;52.026;8.540;2024-02-28T01:53:46;48.03;;;28.85;;
49366;SDS011;35245;52.026;8.540;2024-02-28T01:56:14;45.55;;;28.17;;
49366;SDS011;35245;52.026;8.540;2024-02-28T01:58:44;45.40;;;28.88;;
49366;SDS011;35245;52.026;8.540;2024-02-28T02:01:13;43.55;;;26.92;;
49366;SDS011;35245;52.026;8.540;2024-02-28T02:03:42;44.83;;;27.75;;
49366;SDS011;35245;52.026;8.540;2024-02-28T02:06:09;49.20;;;27.80;;
49366;SDS011;35245;52.026;8.540;2024-02-28T02:08:37;45.13;;;28.15;;
49366;SDS011;35245;52.026;8.540;2024-02-28T02:11:05;41.17;;;26.30;;
49366;SDS011;35245;52.026;8.540;2024-02-28T02:13:32;42.53;;;27.08;;
49366;SDS011;35245;52.026;8.540;2024-02-28T02:16:01;44.97;;;28.08;;
49366;SDS011;35245;52.026;8.540;2024-02-28T02:18:29;47.13;;;28.50;;
49366;SDS011;35245;52.026;8.540;2024-02-28T02:20:58;45.28;;;28.35;;
49366;SDS011;35245;52.026;8.540;2024-02-28T02:23:33;48.25;;;29.23;;
49366;SDS011;35245;52.026;8.540;2024-02-28T02:26:00;44.72;;;28.02;;
49366;SDS011;35245;52.026;8.540;2024-02-28T02:28:27;49.45;;;30.40;;
49366;SDS011;35245;52.026;8.540;2024-02-28T02:30:55;50.22;;;30.63;;
49366;SDS011;35245;52.026;8.540;2024-02-28T02:33:22;53.80;;;30.90;;
49366;SDS011;35245;52.026;8.540;2024-02-28T02:35:49;53.00;;;31.85;;
49366;SDS011;35245;52.026;8.540;2024-02-28T02:38:16;50.00;;;30.02;;
49366;SDS011;35245;52.026;8.540;2024-02-28T02:40:47;50.22;;;29.25;;
49366;SDS011;35245;52.026;8.540;2024-02-28T02:43:15;54.67;;;32.08;;
49366;SDS011;35245;52.026;8.540;2024-02-28T02:45:42;51.20;;;30.77;;
49366;SDS011;35245;52.026;8.540;2024-02-28T02:48:10;50.45;;;30.67;;
49366;SDS011;35245;52.026;8.540;2024-02-28T02:50:37;53.63;;;30.92;;
49366;SDS011;35245;52.026;8.540;2024-02-28T02:53:06;56.65;;;32.28;;
49366;SDS011;35245;52.026;8.540;2024-02-28T02:55:36;53.78;;;31.50;;
49366;SDS011;35245;52.026;8.540;2024-02-28T02:58:04;57.22;;;32.80;;
49366;SDS011;35245;52.026;8.540;2024-02-28T03:00:31;55.58;;;33.15;;
49366;SDS011;35245;52.026;8.540;2024-02-28T03:02:59;57.97;;;33.75;;
49366;SDS011;35245;52.026;8.540;2024-02-28T03:05:26;58.00;;;32.88;;
49366;SDS011;35245;52.026;8.540;2024-02-28T03:07:53;57.03;;;34.40;;
49366;SDS011;35245;52.026;8.540;2024-02-28T03:10:20;58.10;;;34.55;;
49366;SDS011;35245;52.026;8.540;2024-02-28T03:12:47;62.05;;;34.95;;
49366;SDS011;35245;52.026;8.540;2024-02-28T03:15:16;59.17;;;33.20;;
49366;SDS011;35245;52.026;8.540;2024-02-28T03:17:43;56.80;;;32.47;;
49366;SDS011;35245;52.026;8.540;2024-02-28T03:20:10;57.42;;;33.28;;
49366;SDS011;35245;52.026;8.540;2024-02-28T03:22:39;57.58;;;31.88;;
49366;SDS011;35245;52.026;8.540;2024-02-28T03:25:07;61.78;;;33.42;;
49366;SDS011;35245;52.026;8.540;2024-02-28T03:27:35;59.50;;;33.85;;
49366;SDS011;35245;52.026;8.540;2024-02-28T03:30:03;70.03;;;36.60;;
49366;SDS011;35245;52.026;8.540;2024-02-28T03:32:33;66.47;;;35.60;;
49366;SDS011;35245;52.026;8.540;2024-02-28T03:35:00;75.38;;;38.35;;
49366;SDS011;35245;52.026;8.540;2024-02-28T03:37:27;65.63;;;35.55;;
49366;SDS011;35245;52.026;8.540;2024-02-28T03:39:54;68.65;;;36.15;;
49366;SDS011;35245;52.026;8.540;2024-02-28T03:42:21;63.90;;;35.83;;
49366;SDS011;35245;52.026;8.540;2024-02-28T03:44:48;68.10;;;35.15;;
49366;SDS011;35245;52.026;8.540;2024-02-28T03:47:15;72.50;;;37.72;;
49366;SDS011;35245;52.026;8.540;2024-02-28T03:49:44;72.20;;;37.65;;
49366;SDS011;35245;52.026;8.540;2024-02-28T03:52:11;65.40;;;35.00;;
49366;SDS011;35245;52.026;8.540;2024-02-28T03:54:38;70.32;;;36.33;;
49366;SDS011;35245;52.026;8.540;2024-02-28T03:57:09;69.97;;;37.78;;
49366;SDS011;35245;52.026;8.540;2024-02-28T03:59:36;69.05;;;35.65;;
49366;SDS011;35245;52.026;8.540;2024-02-28T04:02:04;76.95;;;37.95;;
49366;SDS011;35245;52.026;8.540;2024-02-28T04:04:31;59.45;;;31.88;;
49366;SDS011;35245;52.026;8.540;2024-02-28T04:07:00;71.75;;;36.67;;
49366;SDS011;35245;52.026;8.540;2024-02-28T04:09:27;65.43;;;34.35;;
49366;SDS011;35245;52.026;8.540;2024-02-28T04:11:54;76.55;;;34.80;;
49366;SDS011;35245;52.026;8.540;2024-02-28T04:14:21;99.45;;;36.95;;
49366;SDS011;35245;52.026;8.540;2024-02-28T04:16:48;78.93;;;35.00;;
49366;SDS011;35245;52.026;8.540;2024-02-28T04:19:15;65.63;;;33.42;;
49366;SDS011;35245;52.026;8.540;2024-02-28T04:21:43;64.80;;;30.60;;
49366;SDS011;35245;52.026;8.540;2024-02-28T04:24:11;80.00;;;33.58;;
49366;SDS011;35245;52.026;8.540;2024-02-28T04:26:38;123.60;;;37.30;;
49366;SDS011;35245;52.026;8.540;2024-02-28T04:29:05;113.57;;;37.22;;
49366;SDS011;35245;52.026;8.540;2024-02-28T04:31:38;150.73;;;34.55;;
49366;SDS011;35245;52.026;8.540;2024-02-28T04:34:06;132.52;;;38.28;;
49366;SDS011;35245;52.026;8.540;2024-02-28T04:36:33;112.68;;;35.65;;
49366;SDS011;35245;52.026;8.540;2024-02-28T04:39:00;94.57;;;33.25;;
49366;SDS011;35245;52.026;8.540;2024-02-28T04:41:30;99.05;;;35.20;;
49366;SDS011;35245;52.026;8.540;2024-02-28T04:43:58;91.53;;;32.28;;
49366;SDS011;35245;52.026;8.540;2024-02-28T04:46:25;82.75;;;33.47;;
49366;SDS011;35245;52.026;8.540;2024-02-28T04:48:52;92.40;;;34.30;;
49366;SDS011;35245;52.026;8.540;2024-02-28T04:51:19;77.07;;;33.33;;
49366;SDS011;35245;52.026;8.540;2024-02-28T04:53:46;74.13;;;31.90;;
49366;SDS011;35245;52.026;8.540;2024-02-28T04:56:13;69.00;;;33.00;;
49366;SDS011;35245;52.026;8.540;2024-02-28T04:58:42;66.80;;;32.67;;
49366;SDS011;35245;52.026;8.540;2024-02-28T05:01:09;61.22;;;31.33;;
49366;SDS011;35245;52.026;8.540;2024-02-28T05:03:38;68.65;;;33.83;;
49366;SDS011;35245;52.026;8.540;2024-02-28T05:06:05;64.35;;;33.22;;
49366;SDS011;35245;52.026;8.540;2024-02-28T05:08:32;66.28;;;31.58;;
49366;SDS011;35245;52.026;8.540;2024-02-28T05:11:00;73.80;;;34.42;;
49366;SDS011;35245;52.026;8.540;2024-02-28T05:13:28;67.63;;;32.88;;
49366;SDS011;35245;52.026;8.540;2024-02-28T05:15:56;83.20;;;36.28;;
49366;SDS011;35245;52.026;8.540;2024-02-28T05:18:23;71.18;;;34.95;;
49366;SDS011;35245;52.026;8.540;2024-02-28T05:20:51;73.75;;;34.22;;
49366;SDS011;35245;52.026;8.540;2024-02-28T05:23:18;69.85;;;33.20;;
49366;SDS011;35245;52.026;8.540;2024-02-28T05:25:46;61.85;;;32.33;;
49366;SDS011;35245;52.026;8.540;2024-02-28T05:28:12;69.47;;;32.97;;
49366;SDS011;35245;52.026;8.540;2024-02-28T05:30:39;75.68;;;34.50;;
49366;SDS011;35245;52.026;8.540;2024-02-28T05:33:08;69.93;;;34.95;;
49366;SDS011;35245;52.026;8.540;2024-02-28T05:35:36;78.05;;;35.38;;
49366;SDS011;35245;52.026;8.540;2024-02-28T05:38:03;76.82;;;35.50;;
49366;SDS011;35245;52.026;8.540;2024-02-28T05:40:31;66.63;;;32.50;;
49366;SDS011;35245;52.026;8.540;2024-02-28T05:42:58;58.05;;;30.05;;
49366;SDS011;35245;52.026;8.540;2024-02-28T05:45:27;61.38;;;31.92;;
49366;SDS011;35245;52.026;8.540;2024-02-28T05:47:54;65.63;;;32.95;;
49366;SDS011;35245;52.026;8.540;2024-02-28T05:50:22;56.15;;;29.00;;
49366;SDS011;35245;52.026;8.540;2024-02-28T05:52:50;62.47;;;30.45;;
49366;SDS011;35245;52.026;8.540;2024-02-28T05:55:17;66.88;;;30.60;;
49366;SDS011;35245;52.026;8.540;2024-02-28T05:57:46;60.20;;;30.95;;
49366;SDS011;35245;52.026;8.540;2024-02-28T06:00:14;59.22;;;30.58;;
49366;SDS011;35245;52.026;8.540;2024-02-28T06:02:41;73.35;;;30.80;;
49366;SDS011;35245;52.026;8.540;2024-02-28T06:05:08;77.63;;;33.08;;
49366;SDS011;35245;52.026;8.540;2024-02-28T06:07:37;78.35;;;32.42;;
49366;SDS011;35245;52.026;8.540;2024-02-28T06:10:04;69.03;;;31.88;;
49366;SDS011;35245;52.026;8.540;2024-02-28T06:12:33;65.47;;;30.75;;
49366;SDS011;35245;52.026;8.540;2024-02-28T06:15:00;72.55;;;31.80;;
49366;SDS011;35245;52.026;8.540;2024-02-28T06:17:28;76.30;;;33.42;;
49366;SDS011;35245;52.026;8.540;2024-02-28T06:19:55;75.68;;;33.70;;
49366;SDS011;35245;52.026;8.540;2024-02-28T06:22:22;72.47;;;31.95;;
49366;SDS011;35245;52.026;8.540;2024-02-28T06:24:50;85.43;;;34.85;;
49366;SDS011;35245;52.026;8.540;2024-02-28T06:27:18;81.25;;;33.25;;
49366;SDS011;35245;52.026;8.540;2024-02-28T06:29:45;97.88;;;35.88;;
49366;SDS011;35245;52.026;8.540;2024-02-28T06:32:14;105.15;;;37.17;;
49366;SDS011;35245;52.026;8.540;2024-02-28T06:34:41;104.60;;;35.33;;
49366;SDS011;35245;52.026;8.540;2024-02-28T06:37:08;124.35;;;40.15;;
49366;SDS011;35245;52.026;8.540;2024-02-28T06:39:35;106.72;;;38.20;;
49366;SDS011;35245;52.026;8.540;2024-02-28T06:42:04;126.45;;;37.08;;
49366;SDS011;35245;52.026;8.540;2024-02-28T06:44:32;158.40;;;39.22;;
49366;SDS011;35245;52.026;8.540;2024-02-28T06:46:59;106.05;;;37.92;;
49366;SDS011;35245;52.026;8.540;2024-02-28T06:49:27;103.38;;;38.25;;
49366;SDS011;35245;52.026;8.540;2024-02-28T06:51:54;89.75;;;34.92;;
49366;SDS011;35245;52.026;8.540;2024-02-28T06:54:23;76.15;;;33.80;;
49366;SDS011;35245;52.026;8.540;2024-02-28T06:56:50;84.35;;;33.83;;
49366;SDS011;35245;52.026;8.540;2024-02-28T06:59:19;87.93;;;33.53;;
49366;SDS011;35245;52.026;8.540;2024-02-28T07:01:46;76.18;;;31.60;;
49366;SDS011;35245;52.026;8.540;2024-02-28T07:04:13;83.30;;;33.15;;
49366;SDS011;35245;52.026;8.540;2024-02-28T07:06:40;92.88;;;34.80;;
49366;SDS011;35245;52.026;8.540;2024-02-28T07:09:07;83.07;;;33.53;;
49366;SDS011;35245;52.026;8.540;2024-02-28T07:11:35;75.60;;;32.15;;
49366;SDS011;35245;52.026;8.540;2024-02-28T07:14:03;93.97;;;35.28;;
49366;SDS011;35245;52.026;8.540;2024-02-28T07:16:31;76.82;;;31.95;;
49366;SDS011;35245;52.026;8.540;2024-02-28T07:18:59;78.88;;;32.40;;
49366;SDS011;35245;52.026;8.540;2024-02-28T07:21:27;78.22;;;31.40;;
49366;SDS011;35245;52.026;8.540;2024-02-28T07:23:55;85.55;;;33.55;;
49366;SDS011;35245;52.026;8.540;2024-02-28T07:26:22;77.25;;;33.15;;
49366;SDS011;35245;52.026;8.540;2024-02-28T07:28:49;74.70;;;31.13;;
49366;SDS011;35245;52.026;8.540;2024-02-28T07:31:16;81.68;;;33.20;;
49366;SDS011;35245;52.026;8.540;2024-02-28T07:33:45;74.25;;;32.47;;
49366;SDS011;35245;52.026;8.540;2024-02-28T07:36:13;77.60;;;30.17;;
49366;SDS011;35245;52.026;8.540;2024-02-28T07:38:41;70.45;;;31.80;;
49366;SDS011;35245;52.026;8.540;2024-02-28T07:41:08;71.00;;;32.95;;
49366;SDS011;35245;52.026;8.540;2024-02-28T07:43:35;71.68;;;30.92;;
49366;SDS011;35245;52.026;8.540;2024-02-28T07:46:06;68.15;;;30.60;;
49366;SDS011;35245;52.026;8.540;2024-02-28T07:48:33;70.25;;;29.75;;
49366;SDS011;35245;52.026;8.540;2024-02-28T07:51:02;73.03;;;31.35;;
49366;SDS011;35245;52.026;8.540;2024-02-28T07:53:31;70.63;;;30.42;;
49366;SDS011;35245;52.026;8.540;2024-02-28T07:55:58;74.65;;;30.98;;
49366;SDS011;35245;52.026;8.540;2024-02-28T07:58:25;69.75;;;30.75;;
49366;SDS011;35245;52.026;8.540;2024-02-28T08:00:53;73.82;;;32.05;;
49366;SDS011;35245;52.026;8.540;2024-02-28T08:03:20;71.80;;;32.08;;
49366;SDS011;35245;52.026;8.540;2024-02-28T08:05:47;71.18;;;29.92;;
49366;SDS011;35245;52.026;8.540;2024-02-28T08:08:15;70.95;;;30.50;;
49366;SDS011;35245;52.026;8.540;2024-02-28T08:10:43;63.00;;;29.77;;
49366;SDS011;35245;52.026;8.540;2024-02-28T08:13:11;61.97;;;27.98;;
49366;SDS011;35245;52.026;8.540;2024-02-28T08:15:39;70.07;;;30.45;;
49366;SDS011;35245;52.026;8.540;2024-02-28T08:18:06;69.68;;;29.67;;
49366;SDS011;35245;52.026;8.540;2024-02-28T08:20:34;79.55;;;30.63;;
49366;SDS011;35245;52.026;8.540;2024-02-28T08:23:02;68.10;;;31.05;;
49366;SDS011;35245;52.026;8.540;2024-02-28T08:25:31;77.93;;;31.45;;
49366;SDS011;35245;52.026;8.540;2024-02-28T08:27:58;70.72;;;31.38;;
49366;SDS011;35245;52.026;8.540;2024-02-28T08:30:25;70.47;;;30.63;;
49366;SDS011;35245;52.026;8.540;2024-02-28T08:32:52;73.20;;;30.98;;
49366;SDS011;35245;52.026;8.540;2024-02-28T08:35:19;71.28;;;32.50;;
49366;SDS011;35245;52.026;8.540;2024-02-28T08:37:48;72.47;;;31.42;;
49366;SDS011;35245;52.026;8.540;2024-02-28T08:40:15;69.00;;;30.15;;
49366;SDS011;35245;52.026;8.540;2024-02-28T08:42:44;66.00;;;31.08;;
49366;SDS011;35245;52.026;8.540;2024-02-28T08:45:12;72.13;;;31.33;;
49366;SDS011;35245;52.026;8.540;2024-02-28T08:47:39;69.40;;;31.58;;
49366;SDS011;35245;52.026;8.540;2024-02-28T08:50:07;65.10;;;31.80;;
49366;SDS011;35245;52.026;8.540;2024-02-28T08:52:35;80.40;;;32.85;;
49366;SDS011;35245;52.026;8.540;2024-02-28T08:55:02;78.47;;;35.10;;
49366;SDS011;35245;52.026;8.540;2024-02-28T08:57:31;75.22;;;32.88;;
49366;SDS011;35245;52.026;8.540;2024-02-28T09:00:00;68.80;;;30.52;;
49366;SDS011;35245;52.026;8.540;2024-02-28T09:02:28;70.07;;;32.30;;
49366;SDS011;35245;52.026;8.540;2024-02-28T09:04:55;69.45;;;34.28;;
49366;SDS011;35245;52.026;8.540;2024-02-28T09:07:22;73.50;;;32.90;;
49366;SDS011;35245;52.026;8.540;2024-02-28T09:09:49;70.30;;;32.20;;
49366;SDS011;35245;52.026;8.540;2024-02-28T09:12:16;68.38;;;30.77;;
49366;SDS011;35245;52.026;8.540;2024-02-28T09:14:44;66.97;;;30.77;;
49366;SDS011;35245;52.026;8.540;2024-02-28T09:17:12;70.10;;;31.42;;
49366;SDS011;35245;52.026;8.540;2024-02-28T09:19:39;66.88;;;33.10;;
49366;SDS011;35245;52.026;8.540;2024-02-28T09:22:06;70.22;;;33.28;;
49366;SDS011;35245;52.026;8.540;2024-02-28T09:24:36;67.88;;;31.25;;
49366;SDS011;35245;52.026;8.540;2024-02-28T09:27:04;65.85;;;32.90;;
49366;SDS011;35245;52.026;8.540;2024-02-28T09:29:32;72.82;;;33.70;;
49366;SDS011;35245;52.026;8.540;2024-02-28T09:32:00;82.70;;;35.05;;
49366;SDS011;35245;52.026;8.540;2024-02-28T09:34:28;73.97;;;34.67;;
49366;SDS011;35245;52.026;8.540;2024-02-28T09:36:56;89.20;;;38.10;;
49366;SDS011;35245;52.026;8.540;2024-02-28T09:39:23;80.60;;;36.97;;
49366;SDS011;35245;52.026;8.540;2024-02-28T09:41:51;80.93;;;36.78;;
49366;SDS011;35245;52.026;8.540;2024-02-28T09:44:18;76.95;;;35.78;;
49366;SDS011;35245;52.026;8.540;2024-02-28T09:46:49;75.70;;;34.95;;
49366;SDS011;35245;52.026;8.540;2024-02-28T09:49:17;75.93;;;35.55;;
49366;SDS011;35245;52.026;8.540;2024-02-28T09:51:47;70.95;;;34.92;;
49366;SDS011;35245;52.026;8.540;2024-02-28T09:54:16;77.93;;;36.30;;
49366;SDS011;35245;52.026;8.540;2024-02-28T09:56:43;83.40;;;37.47;;
49366;SDS011;35245;52.026;8.540;2024-02-28T09:59:10;77.65;;;36.30;;
49366;SDS011;35245;52.026;8.540;2024-02-28T10:01:42;79.93;;;38.63;;
49366;SDS011;35245;52.026;8.540;2024-02-28T10:04:10;85.28;;;37.92;;
49366;SDS011;35245;52.026;8.540;2024-02-28T10:06:39;84.53;;;37.78;;
49366;SDS011;35245;52.026;8.540;2024-02-28T10:09:08;92.53;;;38.70;;
49366;SDS011;35245;52.026;8.540;2024-02-28T10:11:35;89.25;;;38.03;;
49366;SDS011;35245;52.026;8.540;2024-02-28T10:14:05;81.80;;;36.70;;
49366;SDS011;35245;52.026;8.540;2024-02-28T10:16:32;86.82;;;38.60;;
49366;SDS011;35245;52.026;8.540;2024-02-28T10:19:00;90.63;;;36.80;;
49366;SDS011;35245;52.026;8.540;2024-02-28T10:21:29;86.07;;;39.33;;
49366;SDS011;35245;52.026;8.540;2024-02-28T10:23:57;100.05;;;40.67;;
49366;SDS011;35245;52.026;8.540;2024-02-28T10:26:26;103.03;;;41.80;;
49366;SDS011;35245;52.026;8.540;2024-02-28T10:28:55;86.10;;;38.88;;
49366;SDS011;35245;52.026;8.540;2024-02-28T10:31:22;91.15;;;39.20;;
49366;SDS011;35245;52.026;8.540;2024-02-28T10:33:49;84.28;;;38.22;;
49366;SDS011;35245;52.026;8.540;2024-02-28T10:36:16;86.28;;;38.00;;
49366;SDS011;35245;52.026;8.540;2024-02-28T10:38:44;94.10;;;39.47;;
49366;SDS011;35245;52.026;8.540;2024-02-28T10:41:11;95.43;;;40.60;;
49366;SDS011;35245;52.026;8.540;2024-02-28T10:43:42;90.10;;;40.03;;
49366;SDS011;35245;52.026;8.540;2024-02-28T10:46:12;96.85;;;39.95;;
49366;SDS011;35245;52.026;8.540;2024-02-28T10:48:42;99.47;;;39.70;;
49366;SDS011;35245;52.026;8.540;2024-02-28T10:51:09;89.65;;;37.80;;
49366;SDS011;35245;52.026;8.540;2024-02-28T10:53:41;87.30;;;39.80;;
49366;SDS011;35245;52.026;8.540;2024-02-28T10:56:11;89.13;;;39.42;;
49366;SDS011;35245;52.026;8.540;2024-02-28T10:58:43;97.20;;;39.58;;
49366;SDS011;35245;52.026;8.540;2024-02-28T11:01:17;90.38;;;38.05;;
49366;SDS011;35245;52.026;8.540;2024-02-28T11:03:44;86.72;;;38.08;;
49366;SDS011;35245;52.026;8.540;2024-02-28T11:06:16;90.65;;;39.03;;
49366;SDS011;35245;52.026;8.540;2024-02-28T11:08:46;89.47;;;38.88;;
49366;SDS011;35245;52.026;8.540;2024-02-28T11:13:54;89.65;;;37.28;;
49366;SDS011;35245;52.026;8.540;2024-02-28T11:16:28;96.18;;;38.88;;
49366;SDS011;35245;52.026;8.540;2024-02-28T11:18:57;92.18;;;39.72;;
49366;SDS011;35245;52.026;8.540;2024-02-28T11:21:25;85.70;;;36.08;;
49366;SDS011;35245;52.026;8.540;2024-02-28T11:23:53;87.57;;;39.85;;
49366;SDS011;35245;52.026;8.540;2024-02-28T11:26:24;105.22;;;44.60;;
49366;SDS011;35245;52.026;8.540;2024-02-28T11:28:54;98.70;;;43.78;;
49366;SDS011;35245;52.026;8.540;2024-02-28T11:31:21;101.03;;;42.85;;
49366;SDS011;35245;52.026;8.540;2024-02-28T11:33:48;99.35;;;42.45;;
49366;SDS011;35245;52.026;8.540;2024-02-28T11:36:15;107.55;;;45.25;;
49366;SDS011;35245;52.026;8.540;2024-02-28T11:38:43;95.13;;;41.38;;
49366;SDS011;35245;52.026;8.540;2024-02-28T11:41:09;94.82;;;38.45;;
49366;SDS011;35245;52.026;8.540;2024-02-28T11:43:36;97.13;;;41.20;;
49366;SDS011;35245;52.026;8.540;2024-02-28T11:46:09;86.05;;;39.58;;
49366;SDS011;35245;52.026;8.540;2024-02-28T11:48:36;87.95;;;38.10;;
49366;SDS011;35245;52.026;8.540;2024-02-28T11:51:03;93.15;;;39.35;;
49366;SDS011;35245;52.026;8.540;2024-02-28T11:53:30;89.30;;;39.13;;
49366;SDS011;35245;52.026;8.540;2024-02-28T11:55:58;87.28;;;37.92;;
49366;SDS011;35245;52.026;8.540;2024-02-28T11:58:25;95.25;;;39.55;;
49366;SDS011;35245;52.026;8.540;2024-02-28T12:00:52;95.13;;;40.97;;
49366;SDS011;35245;52.026;8.540;2024-02-28T12:03:22;90.47;;;39.08;;
49366;SDS011;35245;52.026;8.540;2024-02-28T12:05:50;98.35;;;40.25;;
49366;SDS011;35245;52.026;8.540;2024-02-28T12:08:18;92.00;;;39.45;;
49366;SDS011;35245;52.026;8.540;2024-02-28T12:10:46;92.28;;;38.25;;
49366;SDS011;35245;52.026;8.540;2024-02-28T12:13:16;91.05;;;39.75;;
49366;SDS011;35245;52.026;8.540;2024-02-28T12:15:43;84.07;;;37.10;;
49366;SDS011;35245;52.026;8.540;2024-02-28T12:18:14;91.15;;;38.63;;
49366;SDS011;35245;52.026;8.540;2024-02-28T12:20:43;96.15;;;39.40;;
49366;SDS011;35245;52.026;8.540;2024-02-28T12:23:10;88.45;;;39.00;;
49366;SDS011;35245;52.026;8.540;2024-02-28T12:25:37;80.57;;;37.03;;
49366;SDS011;35245;52.026;8.540;2024-02-28T12:28:05;87.85;;;39.60;;
49366;SDS011;35245;52.026;8.540;2024-02-28T12:30:38;84.93;;;37.20;;
49366;SDS011;35245;52.026;8.540;2024-02-28T12:33:07;86.03;;;38.45;;
49366;SDS011;35245;52.026;8.540;2024-02-28T12:35:36;88.53;;;39.67;;
49366;SDS011;35245;52.026;8.540;2024-02-28T12:38:05;77.47;;;36.45;;
49366;SDS011;35245;52.026;8.540;2024-02-28T12:40:32;74.13;;;35.78;;
49366;SDS011;35245;52.026;8.540;2024-02-28T12:42:59;79.03;;;37.50;;
49366;SDS011;35245;52.026;8.540;2024-02-28T12:45:26;73.25;;;35.67;;
49366;SDS011;35245;52.026;8.540;2024-02-28T12:47:53;74.72;;;35.33;;
49366;SDS011;35245;52.026;8.540;2024-02-28T12:50:22;71.05;;;34.30;;
49366;SDS011;35245;52.026;8.540;2024-02-28T12:52:49;71.93;;;36.10;;
49366;SDS011;35245;52.026;8.540;2024-02-28T12:55:20;71.35;;;34.60;;
49366;SDS011;35245;52.026;8.540;2024-02-28T12:57:47;70.20;;;34.33;;
49366;SDS011;35245;52.026;8.540;2024-02-28T13:00:15;75.70;;;36.40;;
49366;SDS011;35245;52.026;8.540;2024-02-28T13:02:43;74.60;;;37.50;;
49366;SDS011;35245;52.026;8.540;2024-02-28T13:05:11;75.45;;;36.65;;
49366;SDS011;35245;52.026;8.540;2024-02-28T13:07:39;67.85;;;32.65;;
49366;SDS011;35245;52.026;8.540;2024-02-28T13:10:06;66.35;;;32.95;;
49366;SDS011;35245;52.026;8.540;2024-02-28T13:12:36;68.45;;;33.88;;
49366;SDS011;35245;52.026;8.540;2024-02-28T13:15:05;67.28;;;35.25;;
49366;SDS011;35245;52.026;8.540;2024-02-28T13:17:33;67.18;;;32.60;;
49366;SDS011;35245;52.026;8.540;2024-02-28T13:20:01;66.53;;;32.97;;
49366;SDS011;35245;52.026;8.540;2024-02-28T13:22:29;61.97;;;32.03;;
49366;SDS011;35245;52.026;8.540;2024-02-28T13:24:56;61.95;;;33.85;;
49366;SDS011;35245;52.026;8.540;2024-02-28T13:27:23;67.88;;;34.22;;
49366;SDS011;35245;52.026;8.540;2024-02-28T13:29:52;65.85;;;33.83;;
49366;SDS011;35245;52.026;8.540;2024-02-28T13:32:19;63.03;;;33.83;;
49366;SDS011;35245;52.026;8.540;2024-02-28T13:34:46;63.15;;;33.88;;
49366;SDS011;35245;52.026;8.540;2024-02-28T13:37:13;64.63;;;32.38;;
49366;SDS011;35245;52.026;8.540;2024-02-28T13:39:41;56.15;;;31.10;;
49366;SDS011;35245;52.026;8.540;2024-02-28T13:42:08;58.80;;;31.70;;
49366;SDS011;35245;52.026;8.540;2024-02-28T13:44:35;55.17;;;31.58;;
49366;SDS011;35245;52.026;8.540;2024-02-28T13:47:04;54.40;;;30.83;;
49366;SDS011;35245;52.026;8.540;2024-02-28T13:49:32;52.42;;;29.48;;
49366;SDS011;35245;52.026;8.540;2024-02-28T13:51:59;52.17;;;30.23;;
49366;SDS011;35245;52.026;8.540;2024-02-28T13:54:27;54.28;;;30.42;;
49366;SDS011;35245;52.026;8.540;2024-02-28T13:56:54;59.63;;;32.00;;
49366;SDS011;35245;52.026;8.540;2024-02-28T13:59:22;54.90;;;31.70;;
49366;SDS011;35245;52.026;8.540;2024-02-28T14:01:49;57.58;;;32.33;;
49366;SDS011;35245;52.026;8.540;2024-02-28T14:04:17;56.25;;;31.50;;
49366;SDS011;35245;52.026;8.540;2024-02-28T14:06:45;58.42;;;31.92;;
49366;SDS011;35245;52.026;8.540;2024-02-28T14:09:13;53.05;;;30.80;;
49366;SDS011;35245;52.026;8.540;2024-02-28T14:11:40;56.97;;;30.08;;
49366;SDS011;35245;52.026;8.540;2024-02-28T14:14:07;53.72;;;29.40;;
49366;SDS011;35245;52.026;8.540;2024-02-28T14:16:34;51.72;;;31.10;;
49366;SDS011;35245;52.026;8.540;2024-02-28T14:19:01;52.03;;;30.08;;
49366;SDS011;35245;52.026;8.540;2024-02-28T14:21:30;53.08;;;30.85;;
49366;SDS011;35245;52.026;8.540;2024-02-28T14:23:58;52.45;;;30.98;;
49366;SDS011;35245;52.026;8.540;2024-02-28T14:26:25;54.60;;;30.27;;